Time;durP1;ratioP1;P1;durP2;ratioP2;P2;SDS_P1;SDS_P2;PMS_P1;PMS_P2;Temp;Humidity;BMP_temperature;BMP_pressure;BME280_temperature;BME280_humidity;BME280_pressure;Samples;Min_cycle;Max_cycle;Signal;HPM_P1;HPM_P2
2023/05/14 00:01:50;;;;;;;20.75;15.23;;;10.80;99.90;;;;;;4980643;28;20129;-78
2023/05/14 00:04:18;;;;;;;18.13;14.15;;;10.80;99.90;;;;;;4979184;28;20073;-79
2023/05/14 00:06:44;;;;;;;18.37;14.30;;;10.80;99.90;;;;;;4982295;28;20031;-78
2023/05/14 00:09:10;;;;;;;23.47;14.60;;;10.80;99.90;;;;;;4985653;28;20046;-78
2023/05/14 00:11:36;;;;;;;19.93;15.20;;;10.80;99.90;;;;;;4985438;28;20084;-78
2023/05/14 00:14:01;;;;;;;19.63;14.98;;;10.80;99.90;;;;;;4985217;28;20066;-78
2023/05/14 00:16:27;;;;;;;19.63;15.43;;;10.80;99.90;;;;;;4985098;28;20034;-78
2023/05/14 00:18:52;;;;;;;19.20;16.50;;;10.70;99.90;;;;;;4984981;28;20022;-78
2023/05/14 00:21:18;;;;;;;21.50;16.65;;;10.70;99.90;;;;;;4985981;28;20038;-79
2023/05/14 00:23:43;;;;;;;20.47;15.73;;;10.70;99.90;;;;;;4982949;28;20070;-78
2023/05/14 00:26:09;;;;;;;17.77;14.20;;;10.70;99.90;;;;;;4984680;28;20074;-78
2023/05/14 00:28:34;;;;;;;20.75;16.55;;;10.70;99.90;;;;;;4982710;28;20026;-79
2023/05/14 00:31:00;;;;;;;21.10;16.10;;;10.70;99.90;;;;;;4984160;28;20039;-78
2023/05/14 00:33:25;;;;;;;23.83;16.50;;;10.60;99.90;;;;;;4984288;28;20034;-79
2023/05/14 00:35:51;;;;;;;19.33;15.57;;;10.60;99.90;;;;;;4984345;28;20506;-78
2023/05/14 00:38:18;;;;;;;22.33;16.63;;;10.60;99.90;;;;;;4984743;28;20482;-79
2023/05/14 00:40:48;;;;;;;21.33;16.60;;;10.60;99.90;;;;;;4984183;28;20085;-78
2023/05/14 00:43:14;;;;;;;21.80;15.93;;;10.60;99.90;;;;;;4984602;28;20034;-78
2023/05/14 00:45:40;;;;;;;19.83;16.10;;;10.60;99.90;;;;;;4983837;28;20057;-78
2023/05/14 00:48:06;;;;;;;21.20;15.33;;;10.60;99.90;;;;;;4985161;28;20039;-78
2023/05/14 00:50:33;;;;;;;18.53;14.97;;;10.60;99.90;;;;;;4984420;28;20038;-78
2023/05/14 00:52:59;;;;;;;21.15;14.82;;;10.50;99.90;;;;;;4983146;28;20037;-78
2023/05/14 00:55:25;;;;;;;19.10;14.27;;;10.50;99.90;;;;;;4984245;28;20034;-79
2023/05/14 00:57:53;;;;;;;20.53;15.50;;;10.50;99.90;;;;;;4983421;28;20050;-79
2023/05/14 01:00:19;;;;;;;18.60;15.10;;;10.50;99.90;;;;;;4984206;28;20034;-79
2023/05/14 01:02:45;;;;;;;21.43;16.03;;;10.50;99.90;;;;;;4984246;28;20069;-78
2023/05/14 01:05:10;;;;;;;19.50;15.63;;;10.40;99.90;;;;;;4983142;28;20136;-78
2023/05/14 01:08:01;;;;;;;19.37;15.70;;;10.40;99.90;;;;;;4983051;28;20121;-78
2023/05/14 01:10:29;;;;;;;18.23;15.10;;;10.40;99.90;;;;;;4982180;28;20034;-79
2023/05/14 01:13:30;;;;;;;20.60;14.67;;;10.30;99.90;;;;;;4984391;28;20057;-78
2023/05/14 01:15:58;;;;;;;19.27;14.93;;;10.30;99.90;;;;;;4982972;28;20027;-79
2023/05/14 01:18:26;;;;;;;20.83;15.17;;;10.30;99.90;;;;;;4983222;28;20046;-79
2023/05/14 01:20:53;;;;;;;20.57;14.87;;;10.20;99.90;;;;;;4984174;28;20038;-79
2023/05/14 01:23:19;;;;;;;20.77;15.63;;;10.20;99.90;;;;;;4983143;28;20085;-78
2023/05/14 01:25:44;;;;;;;20.67;14.97;;;10.20;99.90;;;;;;4983064;28;20038;-79
2023/05/14 01:28:17;;;;;;;19.57;14.93;;;10.20;99.90;;;;;;4983119;28;20491;-78
2023/05/14 01:30:49;;;;;;;19.57;15.57;;;10.20;99.90;;;;;;4984011;28;20042;-79
2023/05/14 01:33:17;;;;;;;21.03;16.03;;;10.20;99.90;;;;;;4983449;28;21448;-79
2023/05/14 01:35:44;;;;;;;20.80;15.70;;;10.20;99.90;;;;;;4981654;28;20034;-79
2023/05/14 01:38:16;;;;;;;21.97;15.83;;;10.20;99.90;;;;;;4982881;28;20164;-78
2023/05/14 01:40:43;;;;;;;22.87;16.97;;;10.20;99.90;;;;;;4982814;28;21152;-78
2023/05/14 01:43:10;;;;;;;23.83;17.50;;;10.10;99.90;;;;;;4982420;28;20142;-78
2023/05/14 01:45:36;;;;;;;21.47;16.77;;;10.10;99.90;;;;;;4982428;28;20042;-78
2023/05/14 01:48:01;;;;;;;22.17;16.23;;;10.10;99.90;;;;;;4982640;28;20045;-78
2023/05/14 01:50:27;;;;;;;22.53;17.17;;;10.10;99.90;;;;;;4983644;28;20038;-78
2023/05/14 01:52:55;;;;;;;23.07;17.43;;;10.10;99.90;;;;;;4981606;28;20034;-79
2023/05/14 01:55:23;;;;;;;21.70;16.80;;;10.10;99.90;;;;;;4983111;28;20116;-78
2023/05/14 01:57:53;;;;;;;26.03;18.97;;;10.10;99.90;;;;;;4984626;28;20037;-79
2023/05/14 02:00:19;;;;;;;27.27;20.13;;;10.00;99.90;;;;;;4983337;28;20029;-78
2023/05/14 02:02:45;;;;;;;25.60;19.70;;;10.00;99.90;;;;;;4982965;28;20041;-79
2023/05/14 02:05:11;;;;;;;26.83;20.10;;;10.10;99.90;;;;;;4983053;28;20046;-79
2023/05/14 02:07:37;;;;;;;27.90;18.83;;;10.10;99.90;;;;;;4983304;28;20026;-78
2023/05/14 02:10:03;;;;;;;26.23;19.07;;;10.10;99.90;;;;;;5050311;23;20049;-86
2023/05/14 02:12:28;;;;;;;23.83;18.60;;;10.00;99.90;;;;;;5009071;28;20030;-86
2023/05/14 02:14:54;;;;;;;24.20;18.47;;;10.00;99.90;;;;;;5008689;28;20030;-86
2023/05/14 02:17:19;;;;;;;30.97;19.87;;;10.10;99.90;;;;;;5008519;28;20777;-87
2023/05/14 02:19:45;;;;;;;26.60;19.50;;;10.10;99.90;;;;;;5008622;28;20038;-87
2023/05/14 02:22:11;;;;;;;24.70;19.80;;;10.00;99.90;;;;;;5008613;28;20036;-87
2023/05/14 02:24:36;;;;;;;23.17;17.90;;;10.00;99.90;;;;;;5009905;28;21467;-86
2023/05/14 02:27:02;;;;;;;24.87;18.07;;;10.00;99.90;;;;;;5013429;28;20034;-84
2023/05/14 02:29:28;;;;;;;23.57;17.03;;;10.00;99.90;;;;;;5012421;28;20060;-83
2023/05/14 02:31:53;;;;;;;22.37;16.70;;;10.00;99.90;;;;;;5013926;28;20079;-85
2023/05/14 02:34:19;;;;;;;22.53;16.37;;;10.00;99.90;;;;;;5013896;28;20101;-84
2023/05/14 02:36:44;;;;;;;28.07;18.20;;;9.90;99.90;;;;;;5015085;28;20025;-83
2023/05/14 02:39:10;;;;;;;24.47;18.70;;;9.90;99.90;;;;;;5014910;28;20092;-86
2023/05/14 02:41:35;;;;;;;25.13;17.23;;;9.90;99.90;;;;;;5014504;28;21375;-84
2023/05/14 02:44:01;;;;;;;25.93;18.67;;;9.90;99.90;;;;;;5014890;28;20037;-84
2023/05/14 02:46:26;;;;;;;24.53;17.90;;;9.90;99.90;;;;;;5014180;28;20052;-86
2023/05/14 02:48:52;;;;;;;22.00;17.97;;;9.90;99.90;;;;;;5014599;28;20092;-83
2023/05/14 02:51:20;;;;;;;24.63;17.93;;;9.90;99.90;;;;;;5012264;28;20037;-83
2023/05/14 02:53:45;;;;;;;24.93;19.07;;;9.90;99.90;;;;;;5012416;28;20046;-85
2023/05/14 02:56:11;;;;;;;24.30;18.10;;;9.90;99.90;;;;;;5012056;28;20057;-86
2023/05/14 02:58:37;;;;;;;23.17;18.30;;;9.80;99.90;;;;;;5014368;28;20061;-83
2023/05/14 03:01:02;;;;;;;25.47;18.67;;;9.80;99.90;;;;;;5014157;28;20034;-83
2023/05/14 03:03:28;;;;;;;27.33;19.57;;;9.80;99.90;;;;;;5013813;28;20022;-88
2023/05/14 03:05:54;;;;;;;26.63;19.00;;;9.80;99.90;;;;;;5013694;28;21139;-86
2023/05/14 03:08:19;;;;;;;24.63;18.70;;;9.80;99.90;;;;;;5014339;28;20029;-83
2023/05/14 03:10:45;;;;;;;26.27;19.03;;;9.80;99.90;;;;;;5013788;28;20034;-87
2023/05/14 03:13:10;;;;;;;24.57;18.53;;;9.80;99.90;;;;;;5012878;28;20053;-84
2023/05/14 03:15:36;;;;;;;23.50;18.50;;;9.80;99.90;;;;;;5014412;28;20144;-86
2023/05/14 03:18:02;;;;;;;24.47;18.47;;;9.80;99.90;;;;;;5014293;28;20026;-84
2023/05/14 03:20:27;;;;;;;25.37;19.57;;;9.80;99.90;;;;;;5013799;28;20025;-84
2023/05/14 03:22:53;;;;;;;25.07;18.63;;;9.70;99.90;;;;;;5014687;28;20478;-84
2023/05/14 03:25:19;;;;;;;24.77;19.27;;;9.70;99.90;;;;;;5012510;28;20038;-84
2023/05/14 03:27:45;;;;;;;25.97;19.00;;;9.80;99.90;;;;;;5011701;28;20044;-83
2023/05/14 03:30:11;;;;;;;26.30;17.97;;;9.70;99.90;;;;;;5009979;28;20063;-84
2023/05/14 03:32:36;;;;;;;24.67;18.60;;;9.70;99.90;;;;;;5009764;28;20049;-85
2023/05/14 03:35:02;;;;;;;26.40;18.30;;;9.70;99.90;;;;;;5009020;28;20057;-86
2023/05/14 03:37:28;;;;;;;23.80;18.17;;;9.70;99.90;;;;;;5009266;28;20040;-83
2023/05/14 03:39:53;;;;;;;26.17;18.60;;;9.70;99.90;;;;;;4992735;28;20076;-85
2023/05/14 03:42:19;;;;;;;26.50;18.97;;;9.70;99.90;;;;;;5011094;28;20083;-86
2023/05/14 03:44:44;;;;;;;23.40;17.60;;;9.70;99.90;;;;;;5011345;28;20029;-86
2023/05/14 03:47:10;;;;;;;26.90;17.10;;;9.70;99.90;;;;;;5013207;28;20041;-85
2023/05/14 03:49:35;;;;;;;25.20;19.10;;;9.70;99.90;;;;;;5015332;28;20046;-85
2023/05/14 03:52:01;;;;;;;23.37;17.13;;;9.70;99.90;;;;;;5015083;28;21192;-84
2023/05/14 03:54:26;;;;;;;23.03;16.87;;;9.70;99.90;;;;;;5016072;28;20045;-84
2023/05/14 03:56:52;;;;;;;24.73;17.23;;;9.70;99.90;;;;;;5014614;28;20033;-87
2023/05/14 03:59:17;;;;;;;22.10;16.23;;;9.70;99.90;;;;;;5012189;28;20022;-84
2023/05/14 04:01:43;;;;;;;22.90;17.60;;;9.70;99.90;;;;;;5015278;28;20037;-86
2023/05/14 04:04:09;;;;;;;22.50;16.57;;;9.80;99.90;;;;;;5013439;28;20034;-84
2023/05/14 04:06:35;;;;;;;25.27;17.20;;;9.80;99.90;;;;;;5014220;28;20030;-87
2023/05/14 04:09:00;;;;;;;22.73;17.50;;;9.80;99.90;;;;;;5014027;28;20750;-84
2023/05/14 04:11:26;;;;;;;22.40;16.57;;;9.80;99.90;;;;;;5013218;28;20069;-84
2023/05/14 04:13:51;;;;;;;23.47;17.50;;;9.70;99.90;;;;;;5014157;28;20536;-88
2023/05/14 04:16:17;;;;;;;24.33;16.73;;;9.80;99.90;;;;;;5012920;28;20101;-84
2023/05/14 04:18:42;;;;;;;26.20;17.37;;;9.80;99.90;;;;;;5013091;28;20054;-84
2023/05/14 04:21:08;;;;;;;24.47;17.77;;;9.80;99.90;;;;;;5010527;28;20371;-86
2023/05/14 04:23:33;;;;;;;28.23;17.90;;;9.80;99.90;;;;;;5010603;28;20072;-84
2023/05/14 04:25:59;;;;;;;26.00;17.20;;;9.80;99.90;;;;;;5011690;28;20026;-86
2023/05/14 04:28:24;;;;;;;25.03;17.33;;;9.70;99.90;;;;;;5012386;28;20085;-88
2023/05/14 04:30:50;;;;;;;28.37;17.43;;;9.70;99.90;;;;;;5011573;28;20036;-84
2023/05/14 04:33:16;;;;;;;27.47;20.27;;;9.70;99.90;;;;;;5009381;28;20026;-83
2023/05/14 04:35:42;;;;;;;25.17;17.63;;;9.70;99.90;;;;;;5012264;28;20033;-85
2023/05/14 04:38:08;;;;;;;30.17;18.80;;;9.70;99.90;;;;;;4993461;28;20109;-84
2023/05/14 04:40:34;;;;;;;28.50;18.80;;;9.70;99.90;;;;;;5011509;28;20029;-84
2023/05/14 04:42:59;;;;;;;27.90;17.73;;;9.70;99.90;;;;;;5011208;28;20504;-85
2023/05/14 04:45:25;;;;;;;27.97;19.97;;;9.80;99.90;;;;;;5010709;28;20133;-85
2023/05/14 04:47:51;;;;;;;29.90;19.77;;;9.70;99.90;;;;;;5010330;28;20076;-86
2023/05/14 04:50:16;;;;;;;31.90;18.97;;;9.70;99.90;;;;;;5011427;28;20033;-85
2023/05/14 04:52:42;;;;;;;28.73;19.60;;;9.70;99.90;;;;;;5012251;28;20022;-85
2023/05/14 04:55:08;;;;;;;26.60;19.47;;;9.70;99.90;;;;;;5013602;28;20092;-84
2023/05/14 04:57:33;;;;;;;28.47;19.90;;;9.70;99.90;;;;;;5014753;28;20034;-86
2023/05/14 04:59:59;;;;;;;30.53;22.30;;;9.80;99.90;;;;;;5016520;28;20029;-85
2023/05/14 05:02:24;;;;;;;27.50;19.40;;;9.80;99.90;;;;;;5020567;28;20156;-86
2023/05/14 05:04:50;;;;;;;30.17;19.10;;;9.80;99.90;;;;;;5016548;28;20060;-84
2023/05/14 05:07:15;;;;;;;23.90;17.20;;;9.80;99.90;;;;;;5015053;28;20014;-87
2023/05/14 05:09:42;;;;;;;28.60;18.50;;;9.80;99.90;;;;;;5014879;28;20033;-85
2023/05/14 05:12:08;;;;;;;26.03;18.37;;;9.80;99.90;;;;;;5015529;28;20092;-85
2023/05/14 05:14:33;;;;;;;28.77;20.47;;;9.80;99.90;;;;;;5016928;28;20038;-86
2023/05/14 05:16:59;;;;;;;29.33;19.23;;;9.90;99.90;;;;;;5016296;28;20037;-86
2023/05/14 05:19:24;;;;;;;27.87;18.87;;;9.90;99.90;;;;;;5015699;28;20029;-84
2023/05/14 05:21:50;;;;;;;30.83;20.70;;;9.90;99.90;;;;;;5013756;28;20025;-84
2023/05/14 05:24:15;;;;;;;27.87;19.30;;;9.90;99.90;;;;;;5015138;28;20038;-86
2023/05/14 05:26:41;;;;;;;28.63;19.33;;;9.90;99.90;;;;;;5014436;28;20065;-86
2023/05/14 05:29:06;;;;;;;30.37;19.43;;;9.90;99.90;;;;;;5014738;28;20537;-84
2023/05/14 05:31:32;;;;;;;30.97;20.30;;;9.90;99.90;;;;;;5014600;28;20061;-83
2023/05/14 05:33:58;;;;;;;32.23;19.53;;;9.90;99.90;;;;;;5015256;28;20097;-85
2023/05/14 05:36:24;;;;;;;32.77;20.50;;;10.00;99.90;;;;;;5014916;28;20057;-85
2023/05/14 05:38:50;;;;;;;31.73;19.87;;;10.00;99.90;;;;;;5016079;28;20564;-85
2023/05/14 05:41:15;;;;;;;32.67;20.50;;;10.00;99.90;;;;;;5014810;28;20088;-84
2023/05/14 05:43:41;;;;;;;27.93;19.10;;;10.00;99.90;;;;;;5016573;28;20057;-88
2023/05/14 05:46:07;;;;;;;33.30;21.20;;;10.00;99.90;;;;;;5014890;28;20037;-88
2023/05/14 05:48:32;;;;;;;32.67;20.30;;;10.00;99.90;;;;;;5015688;28;20021;-84
2023/05/14 05:50:58;;;;;;;33.53;21.43;;;10.00;99.90;;;;;;5015996;28;20045;-84
2023/05/14 05:53:23;;;;;;;38.13;22.90;;;10.00;99.90;;;;;;5012393;28;20025;-88
2023/05/14 05:55:50;;;;;;;33.73;20.80;;;10.00;99.90;;;;;;5011792;28;20102;-88
2023/05/14 05:58:18;;;;;;;31.33;20.00;;;9.90;99.90;;;;;;5011982;28;20026;-86
2023/05/14 06:00:45;;;;;;;35.73;23.23;;;9.90;99.90;;;;;;5011855;28;20022;-87
2023/05/14 06:03:12;;;;;;;30.47;21.30;;;9.90;99.90;;;;;;5011670;28;20343;-86
2023/05/14 06:05:37;;;;;;;31.60;20.53;;;9.90;99.90;;;;;;5013204;28;20061;-86
2023/05/14 06:08:03;;;;;;;33.13;22.17;;;9.90;99.90;;;;;;5011529;28;20129;-87
2023/05/14 06:10:29;;;;;;;35.70;22.77;;;9.90;99.90;;;;;;5013450;28;20057;-89
2023/05/14 06:12:54;;;;;;;35.57;21.03;;;9.90;99.90;;;;;;5017024;28;20033;-86
2023/05/14 06:15:20;;;;;;;37.17;22.43;;;9.90;99.90;;;;;;5015270;28;20033;-87
2023/05/14 06:17:45;;;;;;;35.63;21.80;;;9.90;99.90;;;;;;5017818;28;20033;-88
2023/05/14 06:20:11;;;;;;;32.70;22.23;;;9.90;99.90;;;;;;5014809;28;20026;-86
2023/05/14 06:22:37;;;;;;;32.27;21.67;;;9.90;99.90;;;;;;5016798;28;20057;-87
2023/05/14 06:25:03;;;;;;;34.73;22.07;;;9.90;99.90;;;;;;5020030;28;20046;-87
2023/05/14 06:27:28;;;;;;;28.67;20.37;;;9.90;99.90;;;;;;5019973;28;20018;-88
2023/05/14 06:29:54;;;;;;;31.73;21.13;;;9.90;99.90;;;;;;5010925;28;20034;-88
2023/05/14 06:32:20;;;;;;;34.97;22.10;;;9.90;99.90;;;;;;5005031;28;20030;-87
2023/05/14 06:34:45;;;;;;;37.67;20.80;;;10.00;99.90;;;;;;5005925;28;20477;-88
2023/05/14 06:37:11;;;;;;;32.00;20.70;;;10.00;99.90;;;;;;5006668;28;20044;-86
2023/05/14 06:39:37;;;;;;;34.97;21.27;;;10.00;99.90;;;;;;5005929;28;20410;-87
2023/05/14 06:42:04;;;;;;;33.43;20.70;;;10.00;99.90;;;;;;5002997;28;20095;-86
2023/05/14 06:44:29;;;;;;;35.73;21.30;;;10.10;99.90;;;;;;5004893;28;20576;-86
2023/05/14 06:46:56;;;;;;;31.60;20.47;;;10.10;99.90;;;;;;5005598;28;20021;-86
2023/05/14 06:49:21;;;;;;;37.20;21.30;;;10.10;99.90;;;;;;5007402;28;20036;-86
2023/05/14 06:51:47;;;;;;;35.30;19.97;;;10.20;99.90;;;;;;5007283;28;20022;-86
2023/05/14 06:54:12;;;;;;;32.30;20.23;;;10.20;99.90;;;;;;5006248;28;20033;-87
2023/05/14 06:56:38;;;;;;;34.07;20.80;;;10.30;99.90;;;;;;5007255;28;20060;-86
2023/05/14 06:59:03;;;;;;;32.20;21.03;;;10.30;99.90;;;;;;5015794;28;20045;-85
2023/05/14 07:01:29;;;;;;;31.60;20.97;;;10.30;99.90;;;;;;5008297;28;20029;-87
2023/05/14 07:03:55;;;;;;;82.87;55.63;;;10.30;99.90;;;;;;5005745;28;20034;-84
2023/05/14 07:06:21;;;;;;;45.77;31.47;;;10.40;99.90;;;;;;5006600;28;20041;-86
2023/05/14 07:08:47;;;;;;;32.83;19.43;;;10.40;99.90;;;;;;5006608;28;20037;-86
2023/05/14 07:11:12;;;;;;;29.60;19.53;;;10.40;99.90;;;;;;5006693;28;20065;-86
2023/05/14 07:13:38;;;;;;;27.60;18.37;;;10.50;99.90;;;;;;5010221;28;20061;-87
2023/05/14 07:16:05;;;;;;;25.20;18.67;;;10.50;99.90;;;;;;5008704;28;20690;-84
2023/05/14 07:18:30;;;;;;;26.85;18.58;;;10.60;99.90;;;;;;5007632;28;20025;-83
2023/05/14 07:20:56;;;;;;;28.07;17.80;;;10.50;99.90;;;;;;5008881;28;20539;-84
2023/05/14 07:23:21;;;;;;;28.10;17.77;;;10.50;99.90;;;;;;5006542;28;20045;-85
2023/05/14 07:25:47;;;;;;;26.37;18.37;;;10.50;99.90;;;;;;5006735;28;20110;-82
2023/05/14 07:28:12;;;;;;;28.75;19.27;;;10.60;99.90;;;;;;5004936;28;20025;-81
2023/05/14 07:30:38;;;;;;;29.67;20.33;;;10.70;99.90;;;;;;5006871;28;20508;-80
2023/05/14 07:33:04;;;;;;;33.47;18.70;;;10.70;99.90;;;;;;5011452;28;20109;-84
2023/05/14 07:35:29;;;;;;;29.27;19.03;;;10.80;99.90;;;;;;5010260;28;20251;-83
2023/05/14 07:37:55;;;;;;;28.87;17.87;;;10.90;99.90;;;;;;5010816;28;20049;-85
2023/05/14 07:40:21;;;;;;;28.27;20.70;;;10.90;99.90;;;;;;5011389;28;20397;-84
2023/05/14 07:42:46;;;;;;;29.80;19.30;;;10.90;99.90;;;;;;5008691;28;20029;-84
2023/05/14 07:45:12;;;;;;;27.87;18.83;;;10.90;99.90;;;;;;5008034;28;20042;-84
2023/05/14 07:47:38;;;;;;;29.73;19.90;;;10.90;99.90;;;;;;5008903;28;20370;-84
2023/05/14 07:50:05;;;;;;;31.73;18.73;;;10.90;99.90;;;;;;5010387;28;20068;-83
2023/05/14 07:52:30;;;;;;;31.90;20.60;;;10.90;99.90;;;;;;5010318;28;20033;-82
2023/05/14 07:54:56;;;;;;;31.33;19.63;;;10.90;99.90;;;;;;5014087;28;20026;-84
2023/05/14 07:57:21;;;;;;;33.50;19.80;;;10.90;99.90;;;;;;5001114;28;20087;-85
2023/05/14 07:59:47;;;;;;;31.10;19.58;;;10.90;99.90;;;;;;4996034;28;20125;-82
2023/05/14 08:02:14;;;;;;;29.70;20.48;;;10.90;99.90;;;;;;5013338;28;20030;-83
2023/05/14 08:04:40;;;;;;;31.73;20.07;;;10.80;99.90;;;;;;5012283;28;20056;-84
2023/05/14 08:07:07;;;;;;;31.87;19.13;;;10.80;99.90;;;;;;5010386;28;20030;-87
2023/05/14 08:09:33;;;;;;;29.90;18.33;;;10.70;99.90;;;;;;5012713;28;20167;-86
2023/05/14 08:11:58;;;;;;;30.20;19.37;;;10.70;99.90;;;;;;5017001;28;20109;-83
2023/05/14 08:14:24;;;;;;;30.33;18.97;;;10.70;99.90;;;;;;5016431;28;20036;-85
2023/05/14 08:16:50;;;;;;;28.83;19.33;;;10.70;99.90;;;;;;5014487;28;20427;-83
2023/05/14 08:19:15;;;;;;;25.10;16.80;;;10.70;99.90;;;;;;5027233;22;20053;-81
2023/05/14 08:21:41;;;;;;;27.02;18.60;;;10.80;99.90;;;;;;5006231;28;21472;-79
2023/05/14 08:24:06;;;;;;;28.58;19.42;;;10.90;99.90;;;;;;5002231;28;20287;-80
2023/05/14 08:26:32;;;;;;;23.43;17.33;;;10.90;99.90;;;;;;5006477;28;20030;-79
2023/05/14 08:28:57;;;;;;;25.90;18.65;;;11.00;99.90;;;;;;5005348;28;20041;-80
2023/05/14 08:31:23;;;;;;;28.73;18.67;;;11.00;99.90;;;;;;5009652;28;20063;-80
2023/05/14 08:33:48;;;;;;;27.40;18.17;;;11.00;99.90;;;;;;5009092;28;20144;-80
2023/05/14 08:36:14;;;;;;;28.30;19.13;;;11.10;99.90;;;;;;5005480;28;20069;-79
2023/05/14 08:38:41;;;;;;;24.95;17.83;;;11.10;99.90;;;;;;5005315;28;20037;-79
2023/05/14 08:41:07;;;;;;;25.27;18.13;;;11.10;99.90;;;;;;5008559;28;20037;-78
2023/05/14 08:43:39;;;;;;;24.30;17.50;;;11.10;99.90;;;;;;5005480;28;20093;-79
2023/05/14 08:46:06;;;;;;;24.35;17.23;;;11.10;99.90;;;;;;5005294;28;21451;-79
2023/05/14 08:48:33;;;;;;;27.27;17.00;;;11.10;99.90;;;;;;5004875;28;20030;-79
2023/05/14 08:50:59;;;;;;;24.20;16.73;;;11.20;99.90;;;;;;5006912;28;20029;-80
2023/05/14 08:53:25;;;;;;;21.85;16.20;;;11.30;99.90;;;;;;5006324;28;20037;-78
2023/05/14 08:55:52;;;;;;;26.27;17.17;;;11.40;99.90;;;;;;5006992;28;20065;-79
2023/05/14 08:58:18;;;;;;;26.00;17.52;;;11.40;99.90;;;;;;5005108;28;20133;-79
2023/05/14 09:00:44;;;;;;;23.00;17.20;;;11.40;99.90;;;;;;5006407;28;20498;-78
2023/05/14 09:03:11;;;;;;;21.77;15.48;;;11.40;99.90;;;;;;5005746;28;20713;-78
2023/05/14 09:05:37;;;;;;;21.48;15.80;;;11.40;99.90;;;;;;5005295;28;20052;-79
2023/05/14 09:08:02;;;;;;;20.77;15.57;;;11.40;99.90;;;;;;5004927;28;20038;-78
2023/05/14 09:10:28;;;;;;;20.45;14.60;;;11.40;99.90;;;;;;5006473;28;20114;-79
2023/05/14 09:12:53;;;;;;;19.27;14.93;;;11.40;99.90;;;;;;5005095;28;20025;-78
2023/05/14 09:15:19;;;;;;;20.20;14.95;;;11.30;99.90;;;;;;5006969;28;20042;-79
2023/05/14 09:17:47;;;;;;;20.75;13.60;;;11.40;99.90;;;;;;5005752;28;20436;-81
2023/05/14 09:20:13;;;;;;;19.42;13.77;;;11.40;99.90;;;;;;5006437;28;20042;-80
2023/05/14 09:22:39;;;;;;;18.02;13.02;;;11.50;99.90;;;;;;5007067;28;20113;-80
2023/05/14 09:25:08;;;;;;;17.08;13.45;;;11.60;99.90;;;;;;5004875;28;20037;-80
2023/05/14 09:27:34;;;;;;;19.30;14.20;;;11.60;99.90;;;;;;5005989;28;20021;-80
2023/05/14 09:30:09;;;;;;;16.17;13.75;;;11.70;99.90;;;;;;5006319;28;20034;-80
2023/05/14 09:32:39;;;;;;;17.63;12.88;;;11.70;99.90;;;;;;5010829;28;20029;-79
2023/05/14 09:35:22;;;;;;;19.52;14.65;;;11.80;99.90;;;;;;5013009;28;20033;-78
2023/05/14 09:37:52;;;;;;;20.08;14.32;;;11.80;99.90;;;;;;5012358;28;20080;-79
2023/05/14 09:40:19;;;;;;;19.55;14.02;;;11.80;99.90;;;;;;5010889;28;20119;-79
2023/05/14 09:42:46;;;;;;;17.35;13.60;;;11.80;99.90;;;;;;5013136;28;20022;-79
2023/05/14 09:45:12;;;;;;;17.23;13.23;;;11.80;99.90;;;;;;5012332;28;20518;-79
2023/05/14 09:47:38;;;;;;;18.13;13.52;;;11.80;99.90;;;;;;5014017;28;20029;-79
2023/05/14 09:50:05;;;;;;;17.08;13.40;;;11.80;99.90;;;;;;5013309;28;20421;-79
2023/05/14 09:52:30;;;;;;;17.02;12.82;;;11.80;99.90;;;;;;5012806;28;20026;-78
2023/05/14 09:54:56;;;;;;;17.55;12.88;;;11.80;99.90;;;;;;5012354;28;20036;-79
2023/05/14 09:57:22;;;;;;;18.33;13.48;;;11.90;99.90;;;;;;5013397;28;20053;-79
2023/05/14 09:59:47;;;;;;;16.27;12.73;;;11.90;99.90;;;;;;5012534;28;20041;-79
2023/05/14 10:02:24;;;;;;;18.85;13.45;;;11.90;99.90;;;;;;5013256;28;20029;-79
2023/05/14 10:04:51;;;;;;;17.27;13.27;;;11.80;99.90;;;;;;5011989;28;20034;-80
2023/05/14 10:07:22;;;;;;;18.40;13.63;;;11.70;99.90;;;;;;5013007;28;20405;-78
2023/05/14 10:09:53;;;;;;;18.20;12.93;;;11.70;99.90;;;;;;5012153;28;20080;-79
2023/05/14 10:12:21;;;;;;;14.10;11.77;;;11.70;99.90;;;;;;5013122;28;20149;-80
2023/05/14 10:14:52;;;;;;;18.00;13.52;;;11.70;99.90;;;;;;5012152;28;20090;-79
2023/05/14 10:17:20;;;;;;;16.55;11.65;;;11.80;99.90;;;;;;5012949;28;20540;-79
2023/05/14 10:19:51;;;;;;;16.58;12.85;;;11.80;99.90;;;;;;5012847;28;21391;-78
2023/05/14 10:22:21;;;;;;;17.08;12.60;;;11.80;99.90;;;;;;5012710;28;21387;-78
2023/05/14 10:24:47;;;;;;;17.52;13.23;;;11.80;99.90;;;;;;5011500;28;20541;-78
2023/05/14 10:27:14;;;;;;;15.40;12.68;;;11.90;99.90;;;;;;5010890;28;20052;-79
2023/05/14 10:29:40;;;;;;;15.65;12.48;;;11.90;99.90;;;;;;5010834;28;20037;-78
2023/05/14 10:32:08;;;;;;;16.33;11.77;;;11.90;99.90;;;;;;5002048;28;20463;-80
2023/05/14 10:34:36;;;;;;;15.20;11.15;;;11.80;99.90;;;;;;5010652;28;20039;-82
2023/05/14 10:37:24;;;;;;;16.50;12.32;;;11.80;99.90;;;;;;5010129;28;20080;-78
2023/05/14 10:39:58;;;;;;;14.55;10.63;;;11.80;99.90;;;;;;5010844;28;20034;-78
2023/05/14 10:42:31;;;;;;;16.27;11.07;;;11.80;99.90;;;;;;5010551;28;20496;-78
2023/05/14 10:45:06;;;;;;;14.52;11.23;;;11.80;99.90;;;;;;5007556;28;20049;-81
2023/05/14 10:47:32;;;;;;;17.35;12.32;;;11.80;99.90;;;;;;5009520;28;20805;-79
2023/05/14 10:49:59;;;;;;;13.68;10.35;;;11.90;99.90;;;;;;5011152;28;20107;-80
2023/05/14 10:52:25;;;;;;;14.18;10.75;;;11.80;99.90;;;;;;5009810;28;20120;-79
2023/05/14 10:55:00;;;;;;;13.90;10.30;;;11.70;99.90;;;;;;5010432;28;20040;-79
2023/05/14 10:57:27;;;;;;;12.20;10.45;;;11.70;99.90;;;;;;5012825;28;20515;-79
2023/05/14 10:59:55;;;;;;;14.60;10.90;;;11.60;99.90;;;;;;5010017;28;20148;-79
2023/05/14 11:02:26;;;;;;;15.63;11.45;;;11.60;99.90;;;;;;5012466;28;20025;-79
2023/05/14 11:05:07;;;;;;;14.45;11.10;;;11.60;99.90;;;;;;5013503;28;20033;-83
2023/05/14 11:07:35;;;;;;;12.60;9.68;;;11.60;99.90;;;;;;5015512;28;21491;-83
2023/05/14 11:10:02;;;;;;;10.43;9.10;;;11.70;99.90;;;;;;5012625;28;20038;-84
2023/05/14 11:12:28;;;;;;;12.52;10.32;;;11.60;99.90;;;;;;5014851;28;20100;-83
2023/05/14 11:14:58;;;;;;;14.00;10.30;;;11.60;99.90;;;;;;5009923;28;20128;-84
2023/05/14 11:17:25;;;;;;;12.63;10.30;;;11.70;99.90;;;;;;5013614;28;20156;-79
2023/05/14 11:19:50;;;;;;;10.90;9.57;;;11.80;99.90;;;;;;5009758;28;20490;-80
2023/05/14 11:22:16;;;;;;;12.50;10.02;;;11.80;99.90;;;;;;5011900;28;20059;-80
2023/05/14 11:24:42;;;;;;;15.88;10.55;;;11.90;99.90;;;;;;5011334;28;20045;-79
2023/05/14 11:27:08;;;;;;;13.32;10.10;;;12.10;99.90;;;;;;5009927;28;20107;-79
2023/05/14 11:29:35;;;;;;;12.57;9.35;;;12.20;99.90;;;;;;5011008;28;20091;-79
2023/05/14 11:32:03;;;;;;;10.73;9.05;;;12.30;99.90;;;;;;5008638;28;20037;-80
2023/05/14 11:34:29;;;;;;;9.52;8.40;;;12.40;99.90;;;;;;5009139;28;20053;-80
2023/05/14 11:36:55;;;;;;;10.57;8.38;;;12.60;99.90;;;;;;5008206;28;20140;-78
2023/05/14 11:39:20;;;;;;;11.05;7.80;;;12.70;99.90;;;;;;5010105;28;21359;-79
2023/05/14 11:41:46;;;;;;;10.48;7.72;;;12.90;99.90;;;;;;5008108;28;20037;-79
2023/05/14 11:44:11;;;;;;;8.85;6.90;;;13.00;99.90;;;;;;5007891;28;20044;-79
2023/05/14 11:46:37;;;;;;;9.20;6.82;;;13.10;99.90;;;;;;5005961;28;20052;-79
2023/05/14 11:49:05;;;;;;;9.02;7.00;;;13.20;99.90;;;;;;5009307;28;20037;-80
2023/05/14 11:51:31;;;;;;;7.38;6.63;;;13.40;99.90;;;;;;5010759;28;20025;-81
2023/05/14 11:54:00;;;;;;;7.82;6.72;;;13.50;99.90;;;;;;5013230;28;20030;-81
2023/05/14 11:56:25;;;;;;;9.68;7.55;;;13.50;99.90;;;;;;5013017;28;20508;-80
2023/05/14 11:58:57;;;;;;;10.50;7.65;;;13.50;99.90;;;;;;5012526;28;20022;-81
2023/05/14 12:01:22;;;;;;;8.63;6.97;;;13.50;99.90;;;;;;5010979;28;20060;-80
2023/05/14 12:03:49;;;;;;;11.63;7.70;;;13.40;99.90;;;;;;5013398;28;20112;-80
2023/05/14 12:06:15;;;;;;;10.35;8.00;;;13.30;99.90;;;;;;5013919;28;20041;-80
2023/05/14 12:08:40;;;;;;;9.07;8.07;;;13.20;99.90;;;;;;5012505;28;20036;-80
2023/05/14 12:11:08;;;;;;;10.05;8.00;;;13.10;99.90;;;;;;5011984;28;20065;-82
2023/05/14 12:13:35;;;;;;;8.45;7.53;;;13.10;99.90;;;;;;5012216;28;20880;-81
2023/05/14 12:16:01;;;;;;;9.75;8.18;;;13.00;99.90;;;;;;5014742;28;20025;-81
2023/05/14 12:18:31;;;;;;;10.13;8.05;;;13.00;99.90;;;;;;5014468;28;20064;-80
2023/05/14 12:21:02;;;;;;;10.65;7.88;;;13.10;99.90;;;;;;5011449;28;20041;-81
2023/05/14 12:23:31;;;;;;;8.65;7.53;;;13.20;99.90;;;;;;5013277;28;20068;-80
2023/05/14 12:26:07;;;;;;;8.77;7.32;;;13.40;99.90;;;;;;5012274;28;21348;-80
2023/05/14 12:28:34;;;;;;;9.77;8.27;;;13.70;99.90;;;;;;5014766;28;20052;-81